Time;durP1;ratioP1;P1;durP2;ratioP2;P2;SDS_P1;SDS_P2;PMS_P1;PMS_P2;Temp;Humidity;BMP_temperature;BMP_pressure;BME280_temperature;BME280_humidity;BME280_pressure;Samples;Min_cycle;Max_cycle;Signal;HPM_P1;HPM_P2
2021/06/28 00:01:45;;;;;;;;;5.25;4.75;;;;;21.62;66.17;100612.88;4916391;28;45504;-78
2021/06/28 00:04:10;;;;;;;;;4.00;4.00;;;;;21.60;66.14;100609.56;4916107;28;46071;-78
2021/06/28 00:06:36;;;;;;;;;4.00;4.00;;;;;21.58;65.92;100614.25;4916006;28;47748;-78
2021/06/28 00:09:03;;;;;;;;;5.00;5.00;;;;;21.61;66.05;100613.06;4915922;28;46149;-79
2021/06/28 00:11:28;;;;;;;;;4.25;4.00;;;;;21.60;66.03;100614.06;4916349;28;45662;-78
2021/06/28 00:13:54;;;;;;;;;5.00;5.00;;;;;21.61;65.55;100611.22;4916353;28;45646;-79
2021/06/28 00:16:23;;;;;;;;;4.00;4.00;;;;;21.63;65.75;100614.56;4915945;28;46253;-78
2021/06/28 00:18:49;;;;;;;;;4.00;4.00;;;;;21.65;65.92;100625.00;4898786;28;47304;-79
2021/06/28 00:21:14;;;;;;;;;7.00;6.00;;;;;21.63;65.62;100614.56;4899028;28;45905;-79
2021/06/28 00:27:28;;;;;;;;;6.50;5.25;;;;;21.67;66.04;100593.66;4916531;28;45965;-77
2021/06/28 00:29:53;;;;;;;;;6.00;5.50;;;;;21.73;65.99;100595.63;4919541;28;45811;-79
2021/06/28 00:32:19;;;;;;;;;7.00;6.00;;;;;21.73;65.88;100585.78;4920469;28;46299;-78
2021/06/28 00:34:45;;;;;;;;;6.50;6.25;;;;;21.72;65.52;100581.44;4922469;28;45670;-77
2021/06/28 00:37:11;;;;;;;;;6.00;5.00;;;;;21.74;65.74;100575.94;4906178;28;46361;-80
2021/06/28 00:39:36;;;;;;;;;4.00;4.00;;;;;21.72;65.77;100562.78;4922466;28;45607;-78
2021/06/28 00:42:02;;;;;;;;;5.50;5.50;;;;;21.77;65.58;100556.91;4921657;28;45732;-77
2021/06/28 00:44:27;;;;;;;;;5.00;4.25;;;;;21.78;65.80;100556.72;4917159;28;45594;-79
2021/06/28 00:46:53;;;;;;;;;6.00;5.25;;;;;21.78;65.59;100540.72;4915940;28;46752;-80
2021/06/28 00:49:18;;;;;;;;;5.00;5.00;;;;;21.81;65.76;100544.84;4915705;28;46316;-79
2021/06/28 00:51:44;;;;;;;;;5.00;4.00;;;;;21.85;65.50;100548.00;4915789;28;45756;-78
2021/06/28 00:54:10;;;;;;;;;5.75;5.00;;;;;21.78;65.78;100534.56;4915573;28;45587;-79
2021/06/28 00:56:36;;;;;;;;;4.00;4.00;;;;;21.85;65.48;100537.31;4915756;28;47198;-79
2021/06/28 00:59:03;;;;;;;;;5.00;4.00;;;;;21.89;65.42;100530.59;4915592;28;46183;-79
2021/06/28 01:01:29;;;;;;;;;5.25;4.50;;;;;21.90;65.50;100532.25;4898320;28;45665;-80
2021/06/28 01:03:54;;;;;;;;;2.75;2.75;;;;;21.92;65.67;100525.72;4915597;28;45596;-79
2021/06/28 01:06:20;;;;;;;;;3.25;3.25;;;;;21.87;65.38;100516.59;4915327;28;46683;-78
2021/06/28 01:12:08;;;;;;;;;2.75;2.75;;;;;21.95;65.11;100506.72;4915222;28;45757;-80
2021/06/28 01:14:33;;;;;;;;;3.75;3.75;;;;;21.96;65.07;100503.03;4915261;28;45636;-80
2021/06/28 01:16:59;;;;;;;;;5.00;4.00;;;;;21.98;65.07;100481.50;4915341;28;45638;-79
2021/06/28 01:19:28;;;;;;;;;5.00;4.25;;;;;21.98;64.89;100471.66;4915563;28;46579;-79
2021/06/28 01:21:57;;;;;;;;;5.75;5.75;;;;;22.00;64.87;100474.13;4915259;28;45545;-79
2021/06/28 01:24:23;;;;;;;;;5.00;4.50;;;;;21.94;65.32;100491.72;4916717;28;45646;-79
2021/06/28 01:26:49;;;;;;;;;6.00;5.25;;;;;21.99;65.38;100523.16;4918676;28;45609;-78
2021/06/28 01:29:14;;;;;;;;;5.50;5.50;;;;;21.98;65.45;100538.34;4901465;28;45729;-78
2021/06/28 01:31:40;;;;;;;;;6.00;5.00;;;;;21.93;65.01;100539.88;4918476;28;45878;-79
2021/06/28 01:34:05;;;;;;;;;3.25;2.50;;;;;21.95;65.27;100553.91;4901229;28;45716;-80
2021/06/28 01:36:30;;;;;;;;;3.50;3.00;;;;;21.87;65.09;100560.13;4918288;28;47235;-79
2021/06/28 01:42:18;;;;;;;;;1.00;1.00;;;;;21.68;64.62;100572.16;4916587;28;45809;-79
2021/06/28 01:44:43;;;;;;;;;2.00;2.00;;;;;21.57;64.35;100545.09;4918658;28;45675;-79
2021/06/28 01:47:09;;;;;;;;;2.00;2.00;;;;;21.55;64.72;100569.28;4918461;28;46470;-78
2021/06/28 01:49:34;;;;;;;;;1.50;1.50;;;;;21.49;64.59;100564.66;4918289;28;46143;-80
2021/06/28 01:51:59;;;;;;;;;1.25;1.25;;;;;21.46;64.59;100546.38;4918054;28;45843;-79
2021/06/28 01:54:29;;;;;;;;;2.25;1.00;;;;;21.42;64.23;100537.09;4918569;28;45554;-80
2021/06/28 01:56:55;;;;;;;;;1.00;1.00;;;;;21.33;63.99;100530.97;4918251;28;47339;-79
2021/06/28 01:59:29;;;;;;;;;0.00;0.00;;;;;21.32;64.06;100549.84;4917930;28;46241;-79
2021/06/28 02:01:58;;;;;;;;;0.00;0.00;;;;;21.22;64.22;100549.25;4918032;28;45595;-78
2021/06/28 02:04:25;;;;;;;;;0.50;0.50;;;;;21.16;64.27;100564.09;4918555;28;45709;-80
2021/06/28 02:06:51;;;;;;;;;1.25;1.00;;;;;21.02;64.40;100566.69;4918088;28;45756;-80
2021/06/28 02:12:38;;;;;;;;;1.00;1.00;;;;;20.90;64.12;100567.09;4917806;28;45832;-79
2021/06/28 02:15:05;;;;;;;;;1.00;1.00;;;;;20.90;64.68;100544.97;4918421;28;45623;-81
2021/06/28 02:17:30;;;;;;;;;0.75;0.75;;;;;20.90;64.64;100540.47;4917925;28;45750;-80
2021/06/28 02:19:55;;;;;;;;;1.00;0.75;;;;;20.79;64.79;100526.72;4918621;28;45724;-79
2021/06/28 02:22:21;;;;;;;;;1.00;1.00;;;;;20.89;64.57;100540.66;4918512;28;45594;-79
2021/06/28 02:24:46;;;;;;;;;1.00;1.00;;;;;20.86;64.53;100517.03;4902413;28;45976;-81
2021/06/28 02:27:12;;;;;;;;;0.00;0.00;;;;;20.90;64.52;100513.81;4919123;28;45821;-79
2021/06/28 02:29:37;;;;;;;;;1.00;1.00;;;;;20.92;64.50;100506.50;4923801;28;46535;-79
2021/06/28 02:32:03;;;;;;;;;1.00;1.00;;;;;20.93;64.33;100520.66;4924075;28;45733;-80
2021/06/28 02:34:28;;;;;;;;;1.00;1.00;;;;;20.98;64.59;100531.59;4924230;28;45861;-79
2021/06/28 02:36:54;;;;;;;;;0.00;0.00;;;;;20.93;64.77;100521.47;4921877;28;46452;-80
2021/06/28 02:42:41;;;;;;;;;0.25;0.00;;;;;21.04;64.44;100543.38;4916695;28;45682;-78
2021/06/28 02:45:08;;;;;;;;;0.25;0.25;;;;;21.06;64.47;100568.00;4917788;28;45774;-80
2021/06/28 02:47:34;;;;;;;;;1.00;1.00;;;;;21.06;64.28;100575.97;4917478;28;45742;-78
2021/06/28 02:49:59;;;;;;;;;1.00;0.00;;;;;21.09;64.46;100580.97;4917417;28;45623;-79
2021/06/28 02:52:25;;;;;;;;;0.00;0.00;;;;;21.10;64.45;100590.63;4917263;28;45843;-78
2021/06/28 02:54:50;;;;;;;;;0.25;0.00;;;;;21.05;64.67;100601.81;4917288;28;45634;-78
2021/06/28 02:57:16;;;;;;;;;1.75;1.00;;;;;21.02;64.53;100593.34;4917279;28;46561;-80
2021/06/28 02:59:41;;;;;;;;;0.00;0.00;;;;;21.00;64.55;100585.50;4916753;28;46991;-78
2021/06/28 03:02:06;;;;;;;;;1.50;1.25;;;;;20.98;65.01;100568.91;4917292;28;45638;-79
2021/06/28 03:04:32;;;;;;;;;1.00;1.00;;;;;20.92;64.71;100553.63;4917550;28;45671;-79
2021/06/28 03:06:57;;;;;;;;;1.50;1.00;;;;;20.93;64.60;100553.44;4900096;28;48569;-79
2021/06/28 03:12:44;;;;;;;;;1.00;1.00;;;;;20.93;64.63;100565.94;4916922;28;45650;-80
2021/06/28 03:15:13;;;;;;;;;2.00;1.00;;;;;20.92;64.52;100559.78;4917305;28;45867;-78
2021/06/28 03:17:39;;;;;;;;;1.00;1.00;;;;;20.73;64.84;100528.25;4916755;28;45747;-80
2021/06/28 03:20:08;;;;;;;;;1.00;1.00;;;;;20.84;64.81;100538.50;4899483;28;46826;-78
2021/06/28 03:22:33;;;;;;;;;1.00;1.00;;;;;20.85;64.83;100542.84;4916705;28;45976;-79
2021/06/28 03:24:59;;;;;;;;;1.50;1.50;;;;;20.78;64.83;100520.56;4899989;28;45583;-80
2021/06/28 03:27:24;;;;;;;;;1.25;1.00;;;;;20.87;64.71;100510.69;4916776;28;47363;-78
2021/06/28 03:29:50;;;;;;;;;0.75;0.75;;;;;20.89;64.96;100511.38;4916739;28;45980;-78
2021/06/28 03:32:15;;;;;;;;;1.75;1.75;;;;;20.89;64.67;100528.16;4916415;28;45678;-79
2021/06/28 03:34:41;;;;;;;;;2.00;1.00;;;;;20.86;64.46;100528.50;4916656;28;45559;-78
2021/06/28 03:37:06;;;;;;;;;1.75;1.25;;;;;20.86;64.50;100527.69;4916785;28;45823;-81
2021/06/28 03:42:53;;;;;;;;;3.00;2.00;;;;;20.81;64.79;100540.72;4915752;28;45895;-79
2021/06/28 03:45:19;;;;;;;;;3.00;1.25;;;;;20.71;65.01;100524.97;4916852;28;45709;-78
2021/06/28 03:47:45;;;;;;;;;2.00;2.00;;;;;20.67;65.00;100533.47;4916271;28;45708;-80
2021/06/28 03:50:13;;;;;;;;;1.75;1.75;;;;;20.51;64.75;100507.78;4916244;28;45678;-80
2021/06/28 03:52:39;;;;;;;;;2.00;1.00;;;;;20.57;64.90;100525.69;4916444;28;45916;-80
2021/06/28 03:55:06;;;;;;;;;1.00;1.00;;;;;20.54;65.06;100539.38;4916782;28;45655;-80
2021/06/28 03:57:31;;;;;;;;;3.25;2.00;;;;;20.51;65.18;100540.53;4916262;28;45602;-80
2021/06/28 03:59:57;;;;;;;;;2.00;2.00;;;;;20.53;65.14;100540.38;4916376;28;45656;-80
2021/06/28 04:02:23;;;;;;;;;3.00;3.00;;;;;20.53;65.05;100541.19;4916588;28;45989;-79
2021/06/28 04:04:48;;;;;;;;;2.50;2.00;;;;;20.53;65.04;100543.88;4916604;28;45850;-79
2021/06/28 04:07:17;;;;;;;;;2.00;2.00;;;;;20.54;65.63;100542.03;4916019;28;45477;-78
2021/06/28 04:13:04;;;;;;;;;3.00;2.75;;;;;20.44;65.34;100534.28;4916094;28;45738;-80
2021/06/28 04:15:29;;;;;;;;;2.00;2.00;;;;;20.52;65.23;100547.53;4916800;28;45587;-79
2021/06/28 04:17:55;;;;;;;;;2.00;2.00;;;;;20.41;65.00;100531.94;4916528;28;45690;-79
2021/06/28 04:20:23;;;;;;;;;3.00;2.25;;;;;20.53;65.54;100543.88;4916215;28;45543;-80
2021/06/28 04:22:49;;;;;;;;;3.75;3.75;;;;;20.50;65.07;100522.09;4916190;28;45789;-79
2021/06/28 04:25:17;;;;;;;;;2.75;2.00;;;;;20.53;65.25;100519.91;4916527;28;45678;-78
2021/06/28 04:27:43;;;;;;;;;2.00;2.00;;;;;20.52;65.39;100531.56;4915981;28;46650;-79
2021/06/28 04:30:11;;;;;;;;;1.00;1.00;;;;;20.57;65.11;100541.66;4920498;28;46753;-79
2021/06/28 04:32:38;;;;;;;;;2.25;2.00;;;;;20.59;64.99;100550.31;4923220;28;45686;-79
2021/06/28 04:35:08;;;;;;;;;1.00;1.00;;;;;20.58;65.14;100553.16;4923664;28;45644;-79
2021/06/28 04:37:34;;;;;;;;;2.75;1.25;;;;;20.61;65.15;100553.66;4923538;28;46702;-80
2021/06/28 04:43:21;;;;;;;;;3.25;2.75;;;;;20.53;65.22;100540.38;4915366;28;45792;-79
2021/06/28 04:45:47;;;;;;;;;3.75;3.00;;;;;20.66;65.13;100564.59;4916636;28;45775;-80
2021/06/28 04:48:13;;;;;;;;;1.00;1.00;;;;;20.67;65.18;100568.94;4899124;28;45838;-79
2021/06/28 04:50:39;;;;;;;;;1.50;1.00;;;;;20.55;65.16;100562.34;4915949;28;46018;-80
2021/06/28 04:53:05;;;;;;;;;2.00;1.00;;;;;20.67;65.34;100579.59;4916026;28;45632;-79
2021/06/28 04:55:30;;;;;;;;;1.00;1.00;;;;;20.66;65.15;100569.09;4916188;28;45628;-81
2021/06/28 04:57:56;;;;;;;;;3.00;2.00;;;;;20.59;65.45;100566.28;4915850;28;46288;-79
2021/06/28 05:00:23;;;;;;;;;3.00;3.00;;;;;20.65;65.63;100591.41;4918316;28;46005;-80
2021/06/28 05:02:49;;;;;;;;;2.00;2.00;;;;;20.61;65.19;100576.78;4918867;28;45706;-79
2021/06/28 05:05:15;;;;;;;;;2.00;2.00;;;;;20.59;65.38;100571.63;4918906;28;46391;-79
2021/06/28 05:07:44;;;;;;;;;2.25;1.00;;;;;20.64;65.31;100589.72;4918555;28;47459;-80
2021/06/28 05:13:31;;;;;;;;;2.00;1.00;;;;;20.58;65.24;100585.94;4918651;28;45703;-80
2021/06/28 05:15:57;;;;;;;;;1.75;1.25;;;;;20.60;65.77;100591.09;4918816;28;45892;-78
2021/06/28 05:18:22;;;;;;;;;2.00;2.00;;;;;20.60;65.27;100585.75;4918696;28;45593;-78
2021/06/28 05:20:47;;;;;;;;;3.25;2.75;;;;;20.53;65.37;100580.31;4918899;28;46005;-78
2021/06/28 05:23:13;;;;;;;;;3.00;3.00;;;;;20.58;65.60;100595.75;4918432;28;45594;-78
2021/06/28 05:25:38;;;;;;;;;2.00;1.75;;;;;20.54;65.56;100589.94;4918866;28;45867;-78
2021/06/28 05:28:04;;;;;;;;;6.00;5.75;;;;;20.45;65.48;100588.34;4918392;28;46188;-80
2021/06/28 05:30:30;;;;;;;;;2.25;2.25;;;;;20.45;65.46;100585.69;4918532;28;45663;-80
2021/06/28 05:32:55;;;;;;;;;2.00;2.00;;;;;20.47;65.56;100589.81;4918315;28;45684;-79
2021/06/28 05:35:21;;;;;;;;;3.00;3.00;;;;;20.44;65.70;100600.81;4918628;28;45492;-79
2021/06/28 05:37:46;;;;;;;;;1.00;1.00;;;;;20.40;65.15;100583.53;4918962;28;46607;-81
2021/06/28 05:43:33;;;;;;;;;1.50;1.50;;;;;20.42;65.72;100581.50;4917628;28;45781;-80
2021/06/28 05:45:59;;;;;;;;;3.00;3.00;;;;;20.40;65.42;100562.25;4918770;28;45605;-80
2021/06/28 05:48:24;;;;;;;;;5.00;5.00;;;;;20.36;65.50;100555.59;4918386;28;45865;-79
2021/06/28 05:50:50;;;;;;;;;2.50;2.50;;;;;20.44;65.48;100576.03;4918251;28;46237;-79
2021/06/28 05:53:15;;;;;;;;;3.00;3.00;;;;;20.35;65.30;100556.59;4917901;28;45521;-79
2021/06/28 05:55:41;;;;;;;;;3.25;2.25;;;;;20.45;65.52;100562.56;4918435;28;45487;-79
2021/06/28 05:58:06;;;;;;;;;2.00;2.00;;;;;20.44;65.49;100565.38;4917645;28;46239;-79
2021/06/28 06:00:32;;;;;;;;;2.00;2.00;;;;;20.41;65.57;100566.53;4917943;28;45652;-80
2021/06/28 06:03:00;;;;;;;;;3.25;2.00;;;;;20.46;65.61;100558.03;4918228;28;45618;-78
2021/06/28 06:05:26;;;;;;;;;3.50;2.25;;;;;20.43;65.30;100553.91;4918099;28;45806;-78
2021/06/28 06:07:53;;;;;;;;;3.00;2.75;;;;;20.48;65.52;100556.88;4917795;28;45520;-80
2021/06/28 06:13:40;;;;;;;;;3.50;3.00;;;;;20.48;65.67;100580.81;4918013;28;45646;-79
2021/06/28 06:16:05;;;;;;;;;4.00;3.00;;;;;20.49;65.36;100589.66;4918435;28;45523;-80
2021/06/28 06:18:30;;;;;;;;;4.25;3.00;;;;;20.46;65.79;100579.31;4916881;28;46461;-79
2021/06/28 06:20:56;;;;;;;;;3.00;3.00;;;;;20.46;65.62;100588.16;4918111;28;47163;-78
2021/06/28 06:23:22;;;;;;;;;2.00;2.00;;;;;20.49;65.54;100610.94;4918222;28;45559;-79
2021/06/28 06:25:47;;;;;;;;;3.25;2.25;;;;;20.49;65.44;100605.63;4918241;28;45572;-79
2021/06/28 06:28:13;;;;;;;;;3.75;3.00;;;;;20.41;65.55;100610.97;4917918;28;45688;-80
2021/06/28 06:30:41;;;;;;;;;2.00;2.00;;;;;20.49;65.33;100643.72;4918344;28;45638;-79
2021/06/28 06:33:07;;;;;;;;;4.75;3.00;;;;;20.48;65.85;100631.41;4920028;28;45734;-80
2021/06/28 06:35:33;;;;;;;;;4.00;3.50;;;;;20.48;65.59;100617.25;4919943;28;45621;-79
2021/06/28 06:38:00;;;;;;;;;2.75;2.75;;;;;20.47;65.75;100612.94;4923832;28;45591;-79
2021/06/28 06:43:47;;;;;;;;;7.00;7.00;;;;;20.45;65.89;100617.63;4923622;28;45621;-80
2021/06/28 06:46:12;;;;;;;;;4.00;3.00;;;;;20.48;65.82;100630.56;4924300;28;45626;-79
2021/06/28 06:48:38;;;;;;;;;3.00;3.00;;;;;20.48;65.74;100614.59;4921461;28;45597;-79
2021/06/28 06:51:04;;;;;;;;;3.00;3.00;;;;;20.46;65.91;100605.94;4918181;28;45996;-79
2021/06/28 06:53:29;;;;;;;;;5.25;3.25;;;;;20.42;65.49;100605.47;4917625;28;45647;-79
2021/06/28 06:55:55;;;;;;;;;4.00;3.75;;;;;20.34;65.34;100612.66;4917924;28;45662;-80
2021/06/28 06:58:20;;;;;;;;;5.00;4.00;;;;;20.47;65.67;100637.72;4917365;28;46339;-80
2021/06/28 07:00:46;;;;;;;;;4.25;4.00;;;;;20.43;65.87;100632.91;4917336;28;45764;-79
2021/06/28 07:03:11;;;;;;;;;7.50;7.00;;;;;20.47;65.60;100636.88;4917169;28;45672;-79
2021/06/28 07:05:36;;;;;;;;;8.75;8.75;;;;;20.42;65.83;100631.25;4917257;28;45900;-79
2021/06/28 07:08:03;;;;;;;;;5.25;4.50;;;;;20.53;65.93;100634.38;4916996;28;46415;-80
2021/06/28 07:13:51;;;;;;;;;9.25;7.50;;;;;20.61;65.62;100620.22;4916918;28;45741;-80
2021/06/28 07:16:19;;;;;;;;;4.00;4.00;;;;;20.62;65.61;100621.84;4917498;28;45562;-80
2021/06/28 07:18:46;;;;;;;;;4.25;4.00;;;;;20.70;65.45;100635.13;4916886;28;46056;-80
2021/06/28 07:21:12;;;;;;;;;5.00;5.00;;;;;20.74;65.57;100641.78;4916691;28;45895;-79
2021/06/28 07:23:39;;;;;;;;;3.50;3.00;;;;;20.78;65.35;100636.94;4916650;28;45748;-80
2021/06/28 07:26:06;;;;;;;;;4.00;4.00;;;;;20.75;65.26;100626.63;4917142;28;45769;-79
2021/06/28 07:28:33;;;;;;;;;2.00;2.00;;;;;20.58;65.37;100596.56;4915245;28;47621;-80
2021/06/28 07:31:00;;;;;;;;;5.00;3.00;;;;;20.83;65.25;100635.41;4916608;28;46073;-80
2021/06/28 07:33:28;;;;;;;;;3.00;3.00;;;;;20.87;65.15;100639.38;4916679;28;45621;-79
2021/06/28 07:35:55;;;;;;;;;3.00;3.00;;;;;20.82;65.45;100624.94;4916778;28;45604;-81
2021/06/28 07:38:21;;;;;;;;;5.00;2.00;;;;;20.78;65.03;100619.09;4916613;28;45640;-80
2021/06/28 07:44:08;;;;;;;;;1.75;1.50;;;;;20.96;64.98;100640.16;4915815;28;45960;-79
2021/06/28 07:46:35;;;;;;;;;2.00;2.00;;;;;20.99;64.69;100649.66;4916431;28;45945;-80
2021/06/28 07:49:01;;;;;;;;;2.00;2.00;;;;;20.99;64.85;100658.47;4898979;28;46486;-80
2021/06/28 07:51:31;;;;;;;;;3.00;3.00;;;;;20.98;64.66;100651.47;4916250;28;45880;-79
2021/06/28 07:53:56;;;;;;;;;2.25;2.00;;;;;20.99;64.52;100654.97;4899708;28;45693;-79
2021/06/28 07:56:21;;;;;;;;;2.00;2.00;;;;;21.09;64.45;100661.75;4916420;28;45838;-80
2021/06/28 07:58:49;;;;;;;;;2.25;2.00;;;;;21.11;64.37;100653.53;4916059;28;46327;-80
2021/06/28 08:01:15;;;;;;;;;3.00;3.00;;;;;21.07;64.20;100642.41;4916212;28;47148;-79
2021/06/28 08:03:47;;;;;;;;;3.00;3.00;;;;;21.12;64.28;100639.22;4916387;28;45625;-78
2021/06/28 08:06:15;;;;;;;;;3.00;3.00;;;;;21.17;63.96;100645.72;4916489;28;45695;-79
2021/06/28 08:08:40;;;;;;;;;2.50;2.50;;;;;21.26;64.39;100659.84;4915711;28;46454;-78
2021/06/28 08:14:28;;;;;;;;;2.00;2.00;;;;;21.29;64.22;100646.97;4916148;28;45730;-78
2021/06/28 08:16:53;;;;;;;;;2.00;2.00;;;;;21.30;63.83;100647.81;4916115;28;45787;-79
2021/06/28 08:19:19;;;;;;;;;14.50;13.50;;;;;21.40;63.48;100647.56;4915674;28;47247;-79
2021/06/28 08:21:45;;;;;;;;;2.75;2.75;;;;;21.44;63.34;100648.84;4915743;28;46530;-79
2021/06/28 08:24:11;;;;;;;;;2.00;2.00;;;;;21.47;63.57;100654.69;4916122;28;46016;-79
2021/06/28 08:26:37;;;;;;;;;2.75;2.50;;;;;21.52;63.37;100646.97;4916051;28;45718;-80
2021/06/28 08:29:05;;;;;;;;;2.00;2.00;;;;;21.57;63.25;100651.75;4915746;28;46475;-79
2021/06/28 08:31:34;;;;;;;;;2.25;2.25;;;;;21.57;63.14;100649.09;4915792;28;47167;-79
2021/06/28 08:33:59;;;;;;;;;3.00;3.00;;;;;21.62;63.00;100642.22;4899920;28;45738;-80
2021/06/28 08:36:24;;;;;;;;;2.00;2.00;;;;;21.63;62.21;100651.06;4919859;28;45618;-79
2021/06/28 08:38:50;;;;;;;;;1.00;1.00;;;;;21.57;62.46;100643.78;4919178;28;47176;-79
2021/06/28 08:44:37;;;;;;;;;4.00;3.00;;;;;21.69;62.17;100656.50;4919192;28;45839;-81
2021/06/28 08:47:05;;;;;;;;;4.75;3.75;;;;;21.69;62.53;100651.16;4921325;28;45805;-80
2021/06/28 08:49:34;;;;;;;;;2.00;2.00;;;;;21.71;62.41;100656.31;4921498;28;47630;-80
2021/06/28 08:52:00;;;;;;;;;2.75;2.50;;;;;21.72;62.46;100652.63;4921929;28;45540;-80
2021/06/28 08:54:26;;;;;;;;;3.00;2.00;;;;;21.73;62.22;100641.78;4923561;28;45703;-79
2021/06/28 08:56:52;;;;;;;;;3.25;2.75;;;;;21.67;62.15;100628.34;4925441;28;45788;-79
2021/06/28 08:59:17;;;;;;;;;1.00;1.00;;;;;21.78;62.04;100642.06;4904180;28;48326;-80
2021/06/28 09:01:43;;;;;;;;;1.00;1.00;;;;;21.81;61.67;100654.22;4919365;28;45562;-81
2021/06/28 09:04:08;;;;;;;;;1.00;1.00;;;;;21.83;61.99;100646.03;4919514;28;45933;-82
2021/06/28 09:06:35;;;;;;;;;1.00;1.00;;;;;21.81;61.34;100640.88;4919129;28;45742;-80
2021/06/28 09:09:09;;;;;;;;;1.00;0.00;;;;;21.82;61.04;100637.19;4918988;28;45689;-80
2021/06/28 09:11:37;;;;;;;;;1.00;1.00;;;;;21.90;61.52;100642.47;4918830;28;46531;-80
2021/06/28 09:14:06;;;;;;;;;2.50;2.00;;;;;21.88;61.18;100631.16;4918938;28;45626;-79
2021/06/28 09:16:32;;;;;;;;;1.25;1.00;;;;;22.00;61.37;100650.25;4919051;28;45876;-79
2021/06/28 09:19:05;;;;;;;;;2.00;2.00;;;;;22.08;61.09;100653.66;4918645;28;47378;-79
2021/06/28 09:21:52;;;;;;;;;3.00;1.75;;;;;22.01;60.82;100626.06;4918353;28;47072;-80
2021/06/28 09:24:30;;;;;;;;;2.00;2.00;;;;;22.20;61.30;100664.72;4918842;28;45711;-79
2021/06/28 09:27:16;;;;;;;;;2.00;2.00;;;;;22.22;60.60;100660.03;4919129;28;45766;-80
2021/06/28 09:29:50;;;;;;;;;2.00;1.00;;;;;22.29;60.65;100657.47;4918230;28;47092;-80
2021/06/28 09:32:18;;;;;;;;;2.00;1.25;;;;;22.30;60.05;100651.09;4918796;28;46050;-78
2021/06/28 09:34:46;;;;;;;;;1.75;1.75;;;;;22.24;60.40;100639.28;4918958;28;45684;-78
2021/06/28 09:37:14;;;;;;;;;3.00;2.00;;;;;22.35;60.55;100660.19;4919046;28;45592;-79
2021/06/28 09:39:42;;;;;;;;;1.50;1.50;;;;;22.37;60.37;100668.88;4918006;28;47502;-79
2021/06/28 09:42:07;;;;;;;;;1.00;1.00;;;;;22.45;60.68;100665.28;4918498;28;47299;-78
2021/06/28 09:44:34;;;;;;;;;1.00;1.00;;;;;22.46;60.26;100665.06;4918062;28;45665;-78
2021/06/28 09:47:04;;;;;;;;;2.00;2.00;;;;;22.57;60.45;100682.47;4919238;28;45507;-80
2021/06/28 09:49:30;;;;;;;;;3.00;2.25;;;;;22.62;59.71;100676.59;4918424;28;47314;-80
2021/06/28 09:51:55;;;;;;;;;2.00;2.00;;;;;22.66;60.14;100672.53;4918617;28;45646;-78
2021/06/28 09:54:21;;;;;;;;;2.25;1.25;;;;;22.70;59.70;100680.00;4918595;28;45601;-81
2021/06/28 09:56:50;;;;;;;;;1.50;1.50;;;;;22.74;59.32;100678.63;4918724;28;45722;-80
2021/06/28 09:59:31;;;;;;;;;1.00;1.00;;;;;22.69;59.64;100664.16;4918455;28;46306;-79
2021/06/28 10:02:13;;;;;;;;;3.00;2.00;;;;;22.78;59.57;100676.44;4918151;28;46313;-78
2021/06/28 10:04:52;;;;;;;;;2.00;2.00;;;;;22.84;59.58;100678.34;4918225;28;45637;-79
2021/06/28 10:07:38;;;;;;;;;1.00;1.00;;;;;22.90;59.44;100674.91;4918275;28;45839;-81
2021/06/28 10:10:14;;;;;;;;;3.00;2.00;;;;;22.93;59.40;100670.06;4918266;28;46581;-80
2021/06/28 10:12:45;;;;;;;;;1.00;1.00;;;;;23.02;59.32;100687.63;4917752;28;46387;-80
2021/06/28 10:15:14;;;;;;;;;1.00;0.00;;;;;23.08;58.78;100682.53;4918161;28;45715;-79
2021/06/28 10:17:40;;;;;;;;;1.00;1.00;;;;;23.12;58.50;100690.00;4918082;28;45587;-79
2021/06/28 10:20:09;;;;;;;;;1.00;1.00;;;;;23.15;58.23;100689.63;4917779;28;46675;-79
2021/06/28 10:22:35;;;;;;;;;2.00;2.00;;;;;23.19;58.37;100684.72;4900267;28;47590;-79
2021/06/28 10:25:02;;;;;;;;;2.75;2.00;;;;;23.19;58.48;100690.91;4917674;28;45668;-80
2021/06/28 10:27:28;;;;;;;;;1.00;1.00;;;;;23.19;58.75;100685.56;4917687;28;45864;-79
2021/06/28 10:29:54;;;;;;;;;2.25;2.25;;;;;23.24;58.04;100682.31;4917875;28;46225;-80
2021/06/28 10:32:20;;;;;;;;;9.00;8.00;;;;;23.30;57.84;100700.28;4900589;28;46465;-80
2021/06/28 10:34:51;;;;;;;;;2.00;2.00;;;;;23.27;58.13;100681.91;4917140;28;45487;-79
2021/06/28 10:37:43;;;;;;;;;11.50;10.50;;;;;23.35;58.13;100684.50;4917614;28;45575;-80
2021/06/28 10:40:17;;;;;;;;;3.50;3.00;;;;;23.40;57.72;100677.56;4900584;28;48689;-80
2021/06/28 10:42:45;;;;;;;;;2.00;2.00;;;;;23.41;58.10;100667.69;4917717;28;46608;-78
2021/06/28 10:45:13;;;;;;;;;1.00;1.00;;;;;23.44;57.55;100673.47;4917688;28;45787;-80
2021/06/28 10:48:00;;;;;;;;;1.00;0.50;;;;;23.50;57.82;100669.22;4918317;28;45592;-77
2021/06/28 10:50:50;;;;;;;;;2.00;1.25;;;;;23.56;57.65;100670.31;4901825;28;46321;-80
2021/06/28 10:53:16;;;;;;;;;3.00;2.00;;;;;23.58;57.31;100666.44;4917426;28;46602;-80
2021/06/28 10:55:42;;;;;;;;;3.75;2.25;;;;;23.62;57.27;100673.06;4917625;28;45650;-80
2021/06/28 10:58:25;;;;;;;;;2.00;2.00;;;;;23.61;56.69;100657.19;4905651;28;45999;-80
2021/06/28 11:01:11;;;;;;;;;2.50;2.50;;;;;23.66;57.12;100665.47;4924198;28;46569;-80
2021/06/28 11:03:36;;;;;;;;;2.75;1.75;;;;;23.69;57.16;100660.56;4907425;28;46995;-80
2021/06/28 11:06:21;;;;;;;;;2.25;2.25;;;;;23.71;56.50;100655.84;4923832;28;45815;-81
2021/06/28 11:09:10;;;;;;;;;1.00;1.00;;;;;23.80;56.84;100656.53;4920735;28;45562;-80
2021/06/28 11:11:47;;;;;;;;;2.25;1.75;;;;;23.86;56.72;100652.28;4917330;28;45621;-79
2021/06/28 11:14:19;;;;;;;;;2.50;2.00;;;;;23.94;56.40;100657.47;4899950;28;47949;-79
2021/06/28 11:16:57;;;;;;;;;2.00;2.00;;;;;24.00;56.41;100660.19;4900030;28;45794;-80
2021/06/28 11:20:04;;;;;;;;;3.00;2.00;;;;;24.04;56.78;100661.44;4917146;28;45698;-79
2021/06/28 11:22:38;;;;;;;;;2.00;2.00;;;;;24.07;56.16;100654.91;4858155;29;45715;-80
2021/06/28 11:28:34;;;;;;;;;3.00;2.75;;;;;24.08;56.00;100657.34;4857744;29;45596;-77
2021/06/28 11:31:13;;;;;;;;;2.75;2.50;;;;;24.08;55.99;100660.03;4858141;29;45775;-78
2021/06/28 11:33:45;;;;;;;;;3.00;2.25;;;;;24.02;55.83;100654.66;4857964;29;45812;-79
2021/06/28 11:36:36;;;;;;;;;1.25;1.25;;;;;23.91;55.57;100634.59;4857658;29;46446;-78
2021/06/28 11:39:24;;;;;;;;;3.00;2.00;;;;;23.96;55.96;100640.19;4857884;29;45708;-80
2021/06/28 11:45:12;;;;;;;;;2.00;2.00;;;;;24.11;55.41;100646.28;4857308;29;46005;-79
2021/06/28 11:47:48;;;;;;;;;3.00;3.00;;;;;24.12;55.50;100655.13;4857386;29;45699;-78
2021/06/28 11:50:37;;;;;;;;;2.00;2.00;;;;;24.11;55.53;100651.63;4857358;29;45933;-79
2021/06/28 11:53:11;;;;;;;;;4.00;4.00;;;;;24.11;55.56;100650.78;4857646;29;45659;-79
2021/06/28 11:55:40;;;;;;;;;2.50;2.00;;;;;24.06;55.69;100653.22;4857702;29;45685;-80
2021/06/28 11:58:06;;;;;;;;;3.00;3.00;;;;;24.02;55.46;100638.59;4858306;28;48102;-80
2021/06/28 12:00:32;;;;;;;;;1.75;1.75;;;;;24.17;55.39;100658.03;4916829;28;45841;-78
2021/06/28 12:03:26;;;;;;;;;2.75;2.25;;;;;24.18;55.41;100649.81;4916524;28;45481;-80
2021/06/28 12:05:52;;;;;;;;;2.00;2.00;;;;;24.12;55.45;100639.91;4916467;28;46614;-80
2021/06/28 12:08:26;;;;;;;;;2.00;2.00;;;;;24.24;55.10;100643.69;4915817;28;47134;-79
2021/06/28 12:10:59;;;;;;;;;2.00;2.00;;;;;24.22;55.56;100651.13;4916457;28;45718;-79
2021/06/28 12:13:36;;;;;;;;;2.25;2.25;;;;;24.21;55.48;100644.09;4916367;28;45523;-80
2021/06/28 12:16:22;;;;;;;;;3.00;2.00;;;;;24.27;55.43;100647.00;4916337;28;46167;-80
2021/06/28 12:18:48;;;;;;;;;10.50;9.00;;;;;24.29;55.58;100651.16;4916175;28;45880;-80
2021/06/28 12:21:26;;;;;;;;;5.25;5.25;;;;;24.35;55.65;100653.03;4916011;28;45910;-79
2021/06/28 12:24:09;;;;;;;;;1.75;1.25;;;;;24.38;56.04;100649.97;4916464;28;45547;-79
2021/06/28 12:26:35;;;;;;;;;2.00;1.25;;;;;24.43;56.08;100654.72;4915763;28;46642;-77
2021/06/28 12:29:36;;;;;;;;;4.00;3.00;;;;;24.49;56.29;100660.13;4916070;28;45683;-79
2021/06/28 12:32:06;;;;;;;;;2.00;2.00;;;;;24.53;56.36;100656.00;4915684;28;45774;-79
2021/06/28 12:34:32;;;;;;;;;6.75;5.75;;;;;24.56;56.26;100650.25;4916533;28;45758;-79